createdAt,value
2022-09-28T00:01:41.976Z,61.32
2022-09-28T00:04:10.179Z,55.14
2022-09-28T00:06:38.784Z,55.90
2022-09-28T00:09:06.832Z,59.20
2022-09-28T00:11:35.554Z,60.99
2022-09-28T00:14:03.898Z,65.60
2022-09-28T00:16:34.846Z,62.31
2022-09-28T00:19:05.447Z,55.92
2022-09-28T00:21:35.998Z,56.63
2022-09-28T00:24:15.996Z,58.82
2022-09-28T00:26:44.120Z,61.68
2022-09-28T00:29:27.760Z,66.50
2022-09-28T00:32:15.796Z,61.26
2022-09-28T00:34:49.090Z,54.77
2022-09-28T00:37:19.311Z,56.75
2022-09-28T00:39:49.279Z,59.93
2022-09-28T00:42:22.930Z,61.99
2022-09-28T00:44:56.312Z,66.29
2022-09-28T00:47:49.996Z,59.60
2022-09-28T00:50:29.346Z,54.65
2022-09-28T00:53:11.739Z,57.28
2022-09-28T00:55:57.327Z,60.17
2022-09-28T00:58:30.103Z,62.91
2022-09-28T01:00:59.939Z,65.37
2022-09-28T01:03:29.232Z,57.97
2022-09-28T01:06:02.487Z,54.92
2022-09-28T01:08:33.142Z,57.36
2022-09-28T01:11:01.968Z,60.06
2022-09-28T01:13:32.868Z,62.33
2022-09-28T01:16:09.979Z,66.78
2022-09-28T01:18:48.875Z,58.79
2022-09-28T01:21:20.532Z,54.55
2022-09-28T01:24:03.759Z,57.12
2022-09-28T01:26:40.195Z,59.82
2022-09-28T01:29:34.091Z,62.86
2022-09-28T01:32:27.875Z,65.37
2022-09-28T01:35:23.385Z,56.38
2022-09-28T01:37:57.606Z,56.45
2022-09-28T01:40:29.743Z,59.46
2022-09-28T01:43:24.263Z,61.57
2022-09-28T01:46:06.741Z,66.12
2022-09-28T01:48:54.781Z,60.85
2022-09-28T01:51:32.510Z,55.08
2022-09-28T01:54:07.349Z,56.86
2022-09-28T01:56:46.112Z,60.00
2022-09-28T01:59:20.283Z,62.74
2022-09-28T02:01:54.927Z,65.29
2022-09-28T02:04:26.047Z,57.15
2022-09-28T02:07:01.390Z,54.68
2022-09-28T02:09:49.632Z,57.81
2022-09-28T02:12:27.225Z,60.66
2022-09-28T02:15:06.766Z,61.97
2022-09-28T02:17:35.451Z,67.44
2022-09-28T02:20:04.638Z,60.82
2022-09-28T02:22:44.419Z,54.57
2022-09-28T02:25:39.806Z,56.19
2022-09-28T02:28:11.974Z,59.64
2022-09-28T02:30:43.425Z,61.68
2022-09-28T02:33:41.294Z,66.55
2022-09-28T02:36:10.082Z,59.22
2022-09-28T02:38:39.591Z,54.48
2022-09-28T02:41:28.242Z,56.68
2022-09-28T02:43:59.282Z,59.46
2022-09-28T02:46:46.301Z,61.74
2022-09-28T02:49:26.032Z,66.57
2022-09-28T02:52:13.984Z,59.90
2022-09-28T02:54:52.211Z,54.53
2022-09-28T02:57:46.889Z,57.23
2022-09-28T03:00:19.908Z,60.00
2022-09-28T03:03:04.226Z,63.69
2022-09-28T03:05:40.078Z,65.06
2022-09-28T03:08:17.263Z,56.74
2022-09-28T03:11:23.427Z,57.52
2022-09-28T03:13:53.241Z,60.00
2022-09-28T03:16:23.413Z,65.55
2022-09-28T03:18:51.840Z,61.39
2022-09-28T03:21:20.013Z,55.00
2022-09-28T03:23:48.390Z,55.51
2022-09-28T03:26:18.306Z,58.06
2022-09-28T03:28:46.787Z,60.20
2022-09-28T03:31:19.563Z,65.40
2022-09-28T03:33:47.948Z,61.68
2022-09-28T03:36:16.120Z,54.71
2022-09-28T03:38:44.398Z,55.78
2022-09-28T03:41:12.573Z,58.87
2022-09-28T03:43:42.591Z,61.46
2022-09-28T03:46:11.389Z,66.17
2022-09-28T03:48:43.544Z,60.34
2022-09-28T03:51:12.946Z,54.45
2022-09-28T03:53:41.222Z,56.13
2022-09-28T03:56:13.479Z,58.43
2022-09-28T03:58:42.718Z,60.76
2022-09-28T04:01:16.895Z,65.49
2022-09-28T04:03:47.244Z,61.37
2022-09-28T04:06:15.609Z,54.51
2022-09-28T04:08:43.782Z,55.21
2022-09-28T04:11:12.683Z,58.04
2022-09-28T04:13:41.669Z,60.18
2022-09-28T04:16:12.581Z,62.32
2022-09-28T04:18:44.750Z,65.98
2022-09-28T04:21:28.409Z,57.09
2022-09-28T04:24:02.826Z,54.55
2022-09-28T04:26:31.311Z,57.03
2022-09-28T04:29:17.433Z,59.39
2022-09-28T04:32:00.298Z,62.40
2022-09-28T04:34:37.899Z,66.66
2022-09-28T04:37:08.039Z,59.21
2022-09-28T04:39:36.125Z,54.30
2022-09-28T04:42:04.485Z,56.21
2022-09-28T04:44:33.068Z,59.63
2022-09-28T04:47:06.466Z,61.54
2022-09-28T04:49:53.481Z,67.03
2022-09-28T04:52:27.700Z,60.23
2022-09-28T04:54:55.872Z,54.29
2022-09-28T04:57:25.581Z,56.17
2022-09-28T04:59:53.649Z,59.16
2022-09-28T05:02:21.859Z,61.40
2022-09-28T05:05:13.039Z,66.90
2022-09-28T05:08:07.221Z,59.33
2022-09-28T05:10:36.011Z,54.37
2022-09-28T05:13:04.388Z,56.24
2022-09-28T05:15:34.201Z,59.04
2022-09-28T05:18:03.398Z,61.35
2022-09-28T05:20:43.123Z,66.40
2022-09-28T05:23:12.648Z,60.96
2022-09-28T05:25:43.281Z,54.31
2022-09-28T05:28:28.153Z,55.83
2022-09-28T05:31:15.388Z,58.21
2022-09-28T05:33:59.103Z,59.60
2022-09-28T05:36:28.198Z,64.47
2022-09-28T05:38:57.143Z,63.55
2022-09-28T05:41:25.468Z,55.67
2022-09-28T05:43:55.151Z,55.56
2022-09-28T05:46:23.972Z,57.98
2022-09-28T05:48:52.844Z,61.22
2022-09-28T05:51:22.259Z,65.74
2022-09-28T05:53:50.331Z,60.27
2022-09-28T05:56:20.039Z,54.14
2022-09-28T05:58:49.545Z,55.87
2022-09-28T06:01:20.638Z,59.49
2022-09-28T06:03:48.765Z,62.60
2022-09-28T06:06:16.831Z,63.25
2022-09-28T06:08:48.594Z,56.01
2022-09-28T06:11:37.451Z,54.44
2022-09-28T06:14:14.071Z,57.42
2022-09-28T06:16:44.047Z,59.33
2022-09-28T06:19:13.540Z,64.19
2022-09-28T06:22:17.144Z,60.62
2022-09-28T06:24:52.186Z,53.13
2022-09-28T06:27:20.454Z,54.70
2022-09-28T06:29:48.528Z,57.97
2022-09-28T06:32:16.598Z,58.94
2022-09-28T06:34:48.654Z,63.12
2022-09-28T06:37:18.781Z,61.33
2022-09-28T06:39:47.365Z,53.59
2022-09-28T06:42:17.894Z,54.38
2022-09-28T06:45:05.114Z,56.79
2022-09-28T06:48:01.245Z,59.55
2022-09-28T06:50:42.632Z,61.18
2022-09-28T06:53:30.358Z,66.19
2022-09-28T06:56:19.710Z,58.38
2022-09-28T06:58:48.547Z,53.39
2022-09-28T07:01:16.879Z,55.08
2022-09-28T07:04:08.109Z,56.85
2022-09-28T07:06:55.127Z,58.90
2022-09-28T07:09:50.236Z,60.84
2022-09-28T07:12:36.529Z,65.97
2022-09-28T07:15:27.743Z,56.64
2022-09-28T07:18:03.358Z,53.91
2022-09-28T07:20:44.634Z,55.60
2022-09-28T07:23:19.832Z,57.12
2022-09-28T07:26:26.695Z,59.30
2022-09-28T07:29:01.110Z,65.10
2022-09-28T07:31:39.526Z,58.23
2022-09-28T07:34:26.028Z,53.07
2022-09-28T07:37:13.663Z,53.47
2022-09-28T07:40:00.572Z,57.32
2022-09-28T07:42:31.404Z,59.50
2022-09-28T07:45:00.297Z,59.81
2022-09-28T07:47:33.875Z,59.98
2022-09-28T07:50:32.896Z,66.99
2022-09-28T07:53:38.383Z,56.36
2022-09-28T07:56:25.972Z,51.17
2022-09-28T07:59:03.158Z,53.76
2022-09-28T08:01:40.305Z,55.68
2022-09-28T08:04:11.473Z,56.70
2022-09-28T08:06:41.811Z,59.39
2022-09-28T08:09:11.727Z,59.64
2022-09-28T08:11:59.867Z,63.41
2022-09-28T08:14:48.322Z,55.27
2022-09-28T08:17:48.134Z,51.87
2022-09-28T08:20:36.686Z,53.34
2022-09-28T08:23:09.157Z,54.50
2022-09-28T08:25:38.933Z,56.78
2022-09-28T08:28:08.167Z,56.57
2022-09-28T08:30:47.013Z,59.64
2022-09-28T08:33:27.864Z,58.49
2022-09-28T08:36:28.906Z,60.24
2022-09-28T08:39:02.711Z,60.29
2022-09-28T08:42:17.171Z,64.12
2022-09-28T08:45:15.656Z,53.53
2022-09-28T08:48:32.162Z,52.68
2022-09-28T08:51:39.560Z,53.19
2022-09-28T08:54:24.214Z,55.33
2022-09-28T08:57:05.395Z,56.24
2022-09-28T08:59:49.548Z,57.13
2022-09-28T09:02:29.653Z,59.53
2022-09-28T09:05:15.026Z,62.72
2022-09-28T09:08:16.016Z,54.47
2022-09-28T09:10:58.116Z,53.91
2022-09-28T09:13:42.674Z,55.13
2022-09-28T09:16:19.026Z,54.67
2022-09-28T09:19:41.267Z,55.76
2022-09-28T09:22:46.115Z,58.86
2022-09-28T09:25:26.126Z,57.80
2022-09-28T09:28:15.846Z,57.64
2022-09-28T09:31:27.402Z,57.85
2022-09-28T09:34:15.373Z,57.46
2022-09-28T09:37:18.670Z,58.49
2022-09-28T09:40:41.253Z,57.90
2022-09-28T09:43:50.146Z,56.04
2022-09-28T09:46:49.963Z,56.46
2022-09-28T09:49:31.142Z,59.80
2022-09-28T09:52:10.486Z,59.04
2022-09-28T09:54:51.655Z,60.04
2022-09-28T09:57:54.750Z,58.17
2022-09-28T10:00:46.166Z,59.32
2022-09-28T10:03:28.267Z,58.73
2022-09-28T10:06:12.335Z,59.27
2022-09-28T10:08:46.938Z,56.98
2022-09-28T10:11:31.780Z,57.76
2022-09-28T10:14:00.285Z,58.81
2022-09-28T10:16:41.216Z,58.67
2022-09-28T10:19:16.987Z,57.79
2022-09-28T10:22:06.604Z,57.25
2022-09-28T10:24:41.823Z,57.06
2022-09-28T10:27:28.941Z,56.79
2022-09-28T10:30:12.983Z,53.85
2022-09-28T10:32:46.792Z,56.02
2022-09-28T10:35:23.023Z,55.67
2022-09-28T10:38:17.319Z,56.05
2022-09-28T10:40:48.216Z,54.89
2022-09-28T10:43:33.862Z,54.52
2022-09-28T10:46:03.951Z,53.75
2022-09-28T10:48:37.612Z,54.44
2022-09-28T10:51:08.385Z,54.86
2022-09-28T10:53:37.722Z,55.23
2022-09-28T10:56:23.508Z,54.87
2022-09-28T10:59:01.820Z,54.27
2022-09-28T11:01:44.336Z,53.89
2022-09-28T11:04:24.584Z,53.45
2022-09-28T11:06:52.891Z,53.69
2022-09-28T11:09:32.608Z,53.82
2022-09-28T11:12:07.235Z,53.58
2022-09-28T11:14:42.096Z,52.87
2022-09-28T11:17:26.105Z,53.13
2022-09-28T11:20:28.485Z,53.11
2022-09-28T11:23:16.008Z,51.30
2022-09-28T11:25:55.959Z,53.53
2022-09-28T11:28:38.818Z,54.10
2022-09-28T11:31:15.282Z,54.25
2022-09-28T11:34:31.465Z,52.08
2022-09-28T11:37:22.352Z,51.94
2022-09-28T11:40:22.078Z,51.61
2022-09-28T11:43:07.574Z,53.91
2022-09-28T11:46:08.114Z,53.37
2022-09-28T11:48:48.024Z,54.32
2022-09-28T11:51:22.958Z,53.88
2022-09-28T11:53:56.763Z,54.21
2022-09-28T11:56:39.580Z,54.56
2022-09-28T11:59:17.325Z,53.17
2022-09-28T12:01:53.642Z,54.10
2022-09-28T12:04:41.785Z,52.89
2022-09-28T12:07:19.597Z,53.31
2022-09-28T12:09:54.422Z,53.49
2022-09-28T12:12:45.833Z,53.04
2022-09-28T12:15:19.436Z,53.71
2022-09-28T12:17:54.452Z,52.36
2022-09-28T12:20:46.807Z,53.32
2022-09-28T12:23:29.728Z,53.17
2022-09-28T12:26:02.918Z,53.72
2022-09-28T12:28:46.174Z,54.03
2022-09-28T12:31:57.221Z,52.70
2022-09-28T12:34:25.808Z,53.75
2022-09-28T12:37:09.174Z,52.61
2022-09-28T12:40:14.688Z,53.88
2022-09-28T12:42:53.110Z,53.68
2022-09-28T12:46:09.774Z,52.12
2022-09-28T12:48:58.416Z,52.36
2022-09-28T12:51:55.927Z,52.89
2022-09-28T12:54:30.757Z,53.31
2022-09-28T12:57:31.494Z,53.80
2022-09-28T13:00:25.063Z,53.44
2022-09-28T13:03:10.545Z,52.84
2022-09-28T13:06:00.167Z,52.70
2022-09-28T13:08:55.427Z,53.81
2022-09-28T13:11:38.554Z,53.03
2022-09-28T13:14:44.000Z,54.02
2022-09-28T13:17:38.082Z,53.43
2022-09-28T13:20:38.307Z,52.78
2022-09-28T13:23:09.353Z,53.08
2022-09-28T13:25:41.412Z,52.93
2022-09-28T13:28:11.840Z,52.65
2022-09-28T13:30:40.840Z,52.52
2022-09-28T13:33:17.406Z,52.74
2022-09-28T13:35:45.576Z,52.39
2022-09-28T13:38:16.719Z,52.22
2022-09-28T13:41:12.746Z,52.17
2022-09-28T13:43:53.208Z,53.49
2022-09-28T13:46:46.778Z,52.57
2022-09-28T13:49:30.313Z,52.53
2022-09-28T13:52:05.447Z,51.99
2022-09-28T13:54:55.023Z,51.51
2022-09-28T13:57:53.508Z,50.23
2022-09-28T14:00:26.700Z,51.30
2022-09-28T14:03:29.059Z,51.55
2022-09-28T14:06:00.854Z,51.69
2022-09-28T14:08:38.837Z,52.10
2022-09-28T14:11:25.238Z,51.59
2022-09-28T14:14:00.989Z,51.39
2022-09-28T14:16:32.128Z,52.05
2022-09-28T14:19:07.576Z,52.32
2022-09-28T14:21:44.559Z,51.40
2022-09-28T14:24:15.598Z,51.42
2022-09-28T14:27:02.306Z,51.86
2022-09-28T14:29:34.681Z,50.73
2022-09-28T14:32:08.483Z,51.80
2022-09-28T14:34:43.825Z,51.23
2022-09-28T14:37:49.888Z,51.39
2022-09-28T14:40:40.164Z,50.57
2022-09-28T14:43:24.921Z,51.17
2022-09-28T14:46:08.840Z,51.78
2022-09-28T14:49:04.694Z,48.79
2022-09-28T14:51:38.206Z,49.73
2022-09-28T14:54:17.998Z,48.78
2022-09-28T14:57:09.817Z,48.40
2022-09-28T14:59:44.108Z,49.26
2022-09-28T15:02:17.493Z,49.86
2022-09-28T15:04:53.633Z,49.87
2022-09-28T15:07:48.016Z,49.69
2022-09-28T15:10:43.644Z,50.03
2022-09-28T15:13:27.205Z,50.69
2022-09-28T15:15:59.691Z,52.20
2022-09-28T15:19:09.314Z,52.24
2022-09-28T15:21:40.151Z,53.48
2022-09-28T15:25:03.152Z,54.40
2022-09-28T15:27:37.835Z,54.21
2022-09-28T15:30:15.124Z,54.86
2022-09-28T15:32:43.195Z,55.76
2022-09-28T15:35:25.807Z,56.31
2022-09-28T15:37:55.913Z,57.23
2022-09-28T15:40:38.835Z,59.30
2022-09-28T15:43:27.297Z,59.71
2022-09-28T15:46:07.307Z,61.49
2022-09-28T15:48:56.003Z,68.03
2022-09-28T15:51:25.403Z,63.83
2022-09-28T15:54:31.363Z,56.72
2022-09-28T15:57:02.942Z,55.56
2022-09-28T15:59:35.788Z,57.59
2022-09-28T16:02:09.913Z,59.61
2022-09-28T16:04:55.614Z,61.21
2022-09-28T16:07:31.918Z,60.78
2022-09-28T16:10:02.214Z,65.23
2022-09-28T16:12:54.319Z,60.71
2022-09-28T16:15:37.282Z,54.07
2022-09-28T16:18:29.686Z,55.13
2022-09-28T16:21:21.716Z,57.54
2022-09-28T16:23:55.827Z,59.35
2022-09-28T16:26:39.105Z,61.58
2022-09-28T16:29:43.172Z,66.00
2022-09-28T16:32:26.304Z,57.39
2022-09-28T16:35:11.161Z,55.30
2022-09-28T16:37:42.919Z,57.58
2022-09-28T16:40:12.012Z,59.64
2022-09-28T16:42:49.104Z,61.70
2022-09-28T16:45:24.359Z,65.50
2022-09-28T16:47:56.579Z,58.85
2022-09-28T16:50:26.601Z,54.87
2022-09-28T16:53:34.532Z,56.68
2022-09-28T16:56:05.173Z,58.45
2022-09-28T16:58:33.947Z,59.84
2022-09-28T17:01:02.121Z,61.67
2022-09-28T17:03:30.539Z,63.60
2022-09-28T17:05:59.086Z,64.08
2022-09-28T17:08:28.147Z,55.67
2022-09-28T17:11:20.200Z,54.30
2022-09-28T17:13:49.935Z,55.99
2022-09-28T17:16:37.026Z,58.36
2022-09-28T17:19:26.104Z,59.81
2022-09-28T17:21:54.288Z,60.28
2022-09-28T17:24:23.576Z,60.97
2022-09-28T17:26:52.392Z,61.88
2022-09-28T17:29:20.847Z,67.60
2022-09-28T17:31:49.020Z,59.33
2022-09-28T17:34:17.197Z,52.44
2022-09-28T17:36:46.480Z,53.26
2022-09-28T17:39:20.196Z,55.57
2022-09-28T17:41:49.804Z,57.19
2022-09-28T17:44:20.576Z,58.01
2022-09-28T17:46:49.793Z,58.47
2022-09-28T17:49:18.833Z,58.98
2022-09-28T17:51:47.009Z,59.57
2022-09-28T17:54:17.036Z,60.60
2022-09-28T17:56:46.322Z,59.90
2022-09-28T17:59:17.978Z,59.93
2022-09-28T18:01:46.194Z,59.78
2022-09-28T18:04:39.597Z,60.00
2022-09-28T18:07:04.721Z,60.30
2022-09-28T18:09:32.996Z,61.14
2022-09-28T18:12:04.900Z,66.05
2022-09-28T18:14:33.335Z,60.04
2022-09-28T18:17:01.407Z,51.58
2022-09-28T18:19:32.138Z,51.73
2022-09-28T18:22:01.768Z,52.86
2022-09-28T18:24:32.720Z,54.14
2022-09-28T18:27:01.067Z,55.91
2022-09-28T18:29:33.132Z,56.89
2022-09-28T18:32:02.765Z,55.89
2022-09-28T18:34:30.914Z,57.02
2022-09-28T18:36:58.984Z,57.67
2022-09-28T18:39:27.056Z,57.60
2022-09-28T18:41:55.127Z,57.29
2022-09-28T18:44:23.916Z,57.57
2022-09-28T18:46:51.986Z,57.73
2022-09-28T18:49:20.909Z,58.56
2022-09-28T18:51:49.357Z,58.63
2022-09-28T18:54:17.738Z,58.85
2022-09-28T18:56:46.013Z,59.04
2022-09-28T18:59:14.893Z,59.37
2022-09-28T19:01:43.812Z,59.46
2022-09-28T19:04:13.912Z,59.36
2022-09-28T19:06:43.003Z,59.51
2022-09-28T19:09:12.452Z,59.61
2022-09-28T19:11:40.583Z,59.88
2022-09-28T19:14:11.317Z,60.33
2022-09-28T19:16:39.446Z,60.42
2022-09-28T19:19:07.767Z,60.37
2022-09-28T19:21:36.088Z,60.82
2022-09-28T19:24:05.465Z,60.58
2022-09-28T19:26:34.351Z,60.65
2022-09-28T19:29:03.337Z,60.69
2022-09-28T19:31:32.834Z,61.31
2022-09-28T19:34:01.008Z,60.95
2022-09-28T19:36:29.591Z,60.74
2022-09-28T19:39:03.201Z,60.95
2022-09-28T19:41:51.747Z,61.10
2022-09-28T19:44:25.517Z,61.37
2022-09-28T19:47:00.086Z,61.59
2022-09-28T19:49:33.242Z,61.10
2022-09-28T19:52:13.463Z,61.29
2022-09-28T19:54:52.246Z,61.48
2022-09-28T19:57:20.620Z,61.91
2022-09-28T19:59:52.573Z,61.38
2022-09-28T20:02:22.128Z,61.51
2022-09-28T20:04:50.266Z,61.83
2022-09-28T20:07:18.538Z,61.50
2022-09-28T20:09:46.609Z,61.88
2022-09-28T20:12:14.681Z,61.84
2022-09-28T20:14:43.161Z,62.04
2022-09-28T20:17:11.232Z,66.42
2022-09-28T20:19:39.406Z,63.95
2022-09-28T20:22:07.479Z,53.36
2022-09-28T20:24:35.505Z,50.98
2022-09-28T20:27:03.561Z,52.19
2022-09-28T20:29:33.685Z,53.43
2022-09-28T20:32:04.165Z,54.28
2022-09-28T20:34:34.184Z,55.08
2022-09-28T20:37:02.565Z,55.74
2022-09-28T20:39:30.952Z,56.36
2022-09-28T20:41:59.011Z,56.87
2022-09-28T20:44:27.391Z,57.63
2022-09-28T20:46:56.998Z,58.25
2022-09-28T20:49:27.425Z,58.55
2022-09-28T20:51:55.496Z,59.48
2022-09-28T20:54:23.527Z,59.81
2022-09-28T20:56:52.152Z,59.97
2022-09-28T20:59:23.090Z,60.09
2022-09-28T21:01:52.910Z,60.34
2022-09-28T21:04:21.295Z,60.84
2022-09-28T21:06:49.557Z,61.04
2022-09-28T21:09:17.733Z,61.39
2022-09-28T21:11:46.721Z,61.64
2022-09-28T21:14:15.462Z,67.08
2022-09-28T21:16:43.787Z,62.52
2022-09-28T21:19:11.861Z,53.54
2022-09-28T21:21:40.397Z,52.15
2022-09-28T21:24:08.717Z,53.74
2022-09-28T21:26:39.176Z,55.03
2022-09-28T21:29:12.542Z,55.61
2022-09-28T21:31:49.622Z,56.37
2022-09-28T21:34:20.341Z,56.99
2022-09-28T21:36:51.528Z,57.69
2022-09-28T21:39:20.391Z,58.57
2022-09-28T21:41:48.568Z,59.08
2022-09-28T21:44:16.899Z,59.53
2022-09-28T21:46:45.570Z,59.82
2022-09-28T21:49:19.955Z,60.51
2022-09-28T21:51:55.117Z,60.49
2022-09-28T21:54:30.869Z,61.54
2022-09-28T21:57:01.551Z,61.65
2022-09-28T21:59:29.947Z,66.78
2022-09-28T22:01:58.157Z,63.15
2022-09-28T22:04:26.296Z,54.35
2022-09-28T22:06:54.570Z,54.03
2022-09-28T22:09:22.744Z,56.22
2022-09-28T22:11:51.536Z,58.39
2022-09-28T22:14:19.766Z,59.27
2022-09-28T22:16:48.069Z,60.57
2022-09-28T22:19:16.263Z,61.67
2022-09-28T22:21:44.636Z,66.95
2022-09-28T22:24:12.715Z,61.56
2022-09-28T22:26:41.091Z,54.76
2022-09-28T22:29:10.234Z,55.10
2022-09-28T22:31:40.644Z,57.29
2022-09-28T22:34:09.737Z,59.05
2022-09-28T22:36:37.878Z,60.73
2022-09-28T22:39:06.344Z,62.34
2022-09-28T22:41:35.044Z,66.54
2022-09-28T22:44:03.118Z,58.85
2022-09-28T22:46:32.923Z,53.69
2022-09-28T22:49:02.024Z,54.90
2022-09-28T22:51:31.003Z,57.53
2022-09-28T22:53:59.603Z,58.84
2022-09-28T22:56:28.285Z,60.17
2022-09-28T22:58:56.357Z,61.04
2022-09-28T23:01:27.668Z,61.66
2022-09-28T23:03:57.320Z,65.82
2022-09-28T23:06:27.328Z,60.66
2022-09-28T23:08:55.504Z,54.02
2022-09-28T23:11:23.684Z,54.96
2022-09-28T23:13:53.798Z,57.22
2022-09-28T23:16:25.075Z,59.17
2022-09-28T23:18:55.171Z,60.66
2022-09-28T23:21:25.894Z,61.74
2022-09-28T23:23:56.940Z,65.85
2022-09-28T23:26:30.743Z,59.86
2022-09-28T23:29:00.041Z,53.61
2022-09-28T23:31:30.820Z,54.96
2022-09-28T23:34:06.740Z,57.27
2022-09-28T23:36:35.498Z,59.15
2022-09-28T23:39:04.107Z,60.57
2022-09-28T23:41:32.583Z,61.71
2022-09-28T23:44:00.962Z,65.62
2022-09-28T23:46:29.186Z,60.57
2022-09-28T23:48:57.416Z,54.01
2022-09-28T23:51:25.483Z,54.97
2022-09-28T23:53:53.557Z,57.30
2022-09-28T23:56:22.036Z,59.25
2022-09-28T23:58:50.107Z,60.98
